VCP71 HTDA-FWKI
Flight info
| Callsign | VCP71 |
|---|---|
| Flight time | 1h 37m |
| Altitude | 36000 |
| Route | TEVEL1B KASIM UL437 NIBOR DCT UTEGO UTEGO1A |
| Aircraft | B738/M-SDE2E3FGHIRWXY/LB1 |
Departure
| Time | 2026-04-14 10:18 |
|---|---|
| Airport | Julius Nyerere International Airport (HTDA) |
Arrival
| Time | 2026-04-14 11:56 |
|---|---|
| Airport | Kamuzu International Airport (FWKI) |
| Time | Latitude | Longitude | Altitude | Speed | Heading |
|---|---|---|---|---|---|
| 2026-04-14 10:02 | -6.86777 | 39.20761 | 187 ft | 0 kts | 19° |
| 2026-04-14 10:10 | -6.86788 | 39.20757 | 186 ft | 2 kts | 19° |
| 2026-04-14 10:10 | -6.86803 | 39.20752 | 186 ft | 2 kts | 19° |
| 2026-04-14 10:10 | -6.86817 | 39.20747 | 186 ft | 2 kts | 19° |
| 2026-04-14 10:11 | -6.86831 | 39.20741 | 186 ft | 2 kts | 50° |
| 2026-04-14 10:11 | -6.86837 | 39.20728 | 185 ft | 2 kts | 89° |
| 2026-04-14 10:11 | -6.86836 | 39.20719 | 185 ft | 1 kts | 112° |
| 2026-04-14 10:11 | -6.86833 | 39.20713 | 185 ft | 0 kts | 112° |
| 2026-04-14 10:13 | -6.86833 | 39.20714 | 185 ft | 1 kts | 112° |
| 2026-04-14 10:13 | -6.86839 | 39.20727 | 185 ft | 1 kts | 112° |
| 2026-04-14 10:13 | -6.86850 | 39.20755 | 185 ft | 8 kts | 112° |
| 2026-04-14 10:14 | -6.86873 | 39.20811 | 185 ft | 8 kts | 113° |
| 2026-04-14 10:14 | -6.86906 | 39.20863 | 184 ft | 10 kts | 145° |
| 2026-04-14 10:14 | -6.86991 | 39.20844 | 182 ft | 16 kts | 225° |
| 2026-04-14 10:14 | -6.87072 | 39.20763 | 184 ft | 15 kts | 225° |
| 2026-04-14 10:15 | -6.87146 | 39.20689 | 183 ft | 15 kts | 224° |
| 2026-04-14 10:15 | -6.87228 | 39.20607 | 184 ft | 18 kts | 225° |
| 2026-04-14 10:15 | -6.87327 | 39.20509 | 183 ft | 20 kts | 224° |
| 2026-04-14 10:15 | -6.87430 | 39.20405 | 185 ft | 22 kts | 225° |
| 2026-04-14 10:16 | -6.87546 | 39.20287 | 185 ft | 24 kts | 226° |
| 2026-04-14 10:16 | -6.87660 | 39.20168 | 186 ft | 22 kts | 226° |
| 2026-04-14 10:16 | -6.87771 | 39.20052 | 188 ft | 23 kts | 226° |
| 2026-04-14 10:16 | -6.87877 | 39.19941 | 189 ft | 20 kts | 225° |
| 2026-04-14 10:17 | -6.87994 | 39.19904 | 188 ft | 17 kts | 166° |
| 2026-04-14 10:17 | -6.88059 | 39.19940 | 188 ft | 8 kts | 140° |
| 2026-04-14 10:17 | -6.88072 | 39.19993 | 186 ft | 8 kts | 70° |
| 2026-04-14 10:17 | -6.88002 | 39.20073 | 185 ft | 37 kts | 45° |
| 2026-04-14 10:18 | -6.86831 | 39.21241 | 253 ft | 180 kts | 47° |
| 2026-04-14 10:18 | -6.85949 | 39.22070 | 1235 ft | 173 kts | 47° |
| 2026-04-14 10:18 | -6.85120 | 39.22903 | 2054 ft | 175 kts | 49° |
| 2026-04-14 10:19 | -6.84251 | 39.23805 | 2636 ft | 186 kts | 49° |
| 2026-04-14 10:19 | -6.83308 | 39.24763 | 3196 ft | 200 kts | 48° |
| 2026-04-14 10:19 | -6.82281 | 39.25794 | 3740 ft | 217 kts | 47° |
| 2026-04-14 10:19 | -6.81191 | 39.26884 | 4387 ft | 229 kts | 47° |
| 2026-04-14 10:20 | -6.80046 | 39.28030 | 5138 ft | 238 kts | 47° |
| 2026-04-14 10:20 | -6.78863 | 39.29213 | 6060 ft | 239 kts | 47° |
| 2026-04-14 10:20 | -6.77689 | 39.30388 | 6919 ft | 241 kts | 49° |
| 2026-04-14 10:20 | -6.76748 | 39.31741 | 7687 ft | 242 kts | 72° |
| 2026-04-14 10:21 | -6.76537 | 39.33388 | 8528 ft | 241 kts | 96° |
| 2026-04-14 10:21 | -6.76940 | 39.35003 | 9300 ft | 244 kts | 112° |
| 2026-04-14 10:21 | -6.77786 | 39.36492 | 10046 ft | 249 kts | 129° |
| 2026-04-14 10:21 | -6.79162 | 39.37582 | 10769 ft | 257 kts | 148° |
| 2026-04-14 10:22 | -6.80767 | 39.38397 | 11477 ft | 261 kts | 151° |
| 2026-04-14 10:22 | -6.82412 | 39.39201 | 12197 ft | 264 kts | 150° |
| 2026-04-14 10:22 | -6.84046 | 39.40030 | 12869 ft | 268 kts | 150° |
| 2026-04-14 10:22 | -6.85722 | 39.40908 | 13536 ft | 272 kts | 149° |
| 2026-04-14 10:23 | -6.87392 | 39.41794 | 14195 ft | 275 kts | 149° |
| 2026-04-14 10:23 | -6.89128 | 39.42656 | 14823 ft | 280 kts | 156° |
| 2026-04-14 10:23 | -6.91020 | 39.43101 | 15437 ft | 287 kts | 178° |
| 2026-04-14 10:23 | -6.93012 | 39.42746 | 16021 ft | 295 kts | 201° |
| 2026-04-14 10:24 | -6.94829 | 39.41673 | 16352 ft | 311 kts | 219° |
| 2026-04-14 10:24 | -6.96430 | 39.40173 | 16705 ft | 324 kts | 224° |
| 2026-04-14 10:24 | -6.98076 | 39.38514 | 17021 ft | 339 kts | 224° |
| 2026-04-14 10:24 | -6.99768 | 39.36793 | 17342 ft | 353 kts | 225° |
| 2026-04-14 10:25 | -7.01544 | 39.34995 | 17655 ft | 367 kts | 225° |
| 2026-04-14 10:25 | -7.03386 | 39.33141 | 17928 ft | 381 kts | 225° |
| 2026-04-14 10:25 | -7.05299 | 39.31221 | 18193 ft | 395 kts | 225° |
| 2026-04-14 10:25 | -7.07259 | 39.29259 | 18679 ft | 401 kts | 225° |
| 2026-04-14 10:26 | -7.09230 | 39.27286 | 19310 ft | 402 kts | 225° |
| 2026-04-14 10:26 | -7.11228 | 39.25288 | 19924 ft | 404 kts | 225° |
| 2026-04-14 10:26 | -7.13227 | 39.23289 | 20527 ft | 406 kts | 226° |
| 2026-04-14 10:26 | -7.15210 | 39.21305 | 21109 ft | 407 kts | 226° |
| 2026-04-14 10:27 | -7.17239 | 39.19246 | 21612 ft | 411 kts | 228° |
| 2026-04-14 10:27 | -7.19055 | 39.17036 | 22185 ft | 411 kts | 235° |
| 2026-04-14 10:27 | -7.20557 | 39.14587 | 22713 ft | 413 kts | 243° |
| 2026-04-14 10:27 | -7.21754 | 39.11959 | 23169 ft | 416 kts | 248° |
| 2026-04-14 10:28 | -7.22796 | 39.09226 | 23688 ft | 418 kts | 250° |
| 2026-04-14 10:28 | -7.23749 | 39.06488 | 24149 ft | 422 kts | 251° |
| 2026-04-14 10:28 | -7.24684 | 39.03694 | 24631 ft | 424 kts | 251° |
| 2026-04-14 10:28 | -7.25624 | 39.00852 | 25079 ft | 427 kts | 251° |
| 2026-04-14 10:29 | -7.26559 | 38.98037 | 25543 ft | 430 kts | 251° |
| 2026-04-14 10:29 | -7.27515 | 38.95176 | 25986 ft | 433 kts | 251° |
| 2026-04-14 10:29 | -7.28489 | 38.92281 | 26457 ft | 435 kts | 250° |
| 2026-04-14 10:29 | -7.29458 | 38.89418 | 26877 ft | 437 kts | 250° |
| 2026-04-14 10:30 | -7.30451 | 38.86494 | 27251 ft | 441 kts | 250° |
| 2026-04-14 10:30 | -7.31443 | 38.83584 | 27690 ft | 443 kts | 250° |
| 2026-04-14 10:30 | -7.32467 | 38.80639 | 28088 ft | 446 kts | 249° |
| 2026-04-14 10:30 | -7.33622 | 38.77766 | 28493 ft | 447 kts | 244° |
| 2026-04-14 10:31 | -7.35143 | 38.75039 | 28840 ft | 449 kts | 235° |
| 2026-04-14 10:31 | -7.37112 | 38.72578 | 29286 ft | 449 kts | 226° |
| 2026-04-14 10:31 | -7.39405 | 38.70464 | 29646 ft | 452 kts | 219° |
| 2026-04-14 10:31 | -7.41967 | 38.68563 | 30047 ft | 454 kts | 215° |
| 2026-04-14 10:32 | -7.44585 | 38.66811 | 30601 ft | 451 kts | 213° |
| 2026-04-14 10:32 | -7.47223 | 38.65132 | 31235 ft | 447 kts | 212° |
| 2026-04-14 10:32 | -7.49863 | 38.63490 | 31864 ft | 443 kts | 212° |
| 2026-04-14 10:32 | -7.52462 | 38.61883 | 32404 ft | 440 kts | 212° |
| 2026-04-14 10:33 | -7.55083 | 38.60261 | 32918 ft | 438 kts | 212° |
| 2026-04-14 10:33 | -7.57677 | 38.58649 | 33430 ft | 436 kts | 212° |
| 2026-04-14 10:33 | -7.60243 | 38.57047 | 33865 ft | 436 kts | 212° |
| 2026-04-14 10:33 | -7.62815 | 38.55435 | 34281 ft | 435 kts | 212° |
| 2026-04-14 10:34 | -7.68039 | 38.52146 | 35156 ft | 433 kts | 212° |
| 2026-04-14 10:34 | -7.70571 | 38.50548 | 35614 ft | 431 kts | 212° |
| 2026-04-14 10:34 | -7.73141 | 38.48925 | 35926 ft | 432 kts | 212° |
| 2026-04-14 10:35 | -7.75706 | 38.47303 | 35944 ft | 437 kts | 212° |
| 2026-04-14 10:35 | -7.80940 | 38.43993 | 35941 ft | 446 kts | 212° |
| 2026-04-14 10:36 | -7.86210 | 38.40658 | 35939 ft | 443 kts | 212° |
| 2026-04-14 10:36 | -7.91465 | 38.37333 | 35941 ft | 443 kts | 212° |
| 2026-04-14 10:37 | -7.96738 | 38.33993 | 35940 ft | 444 kts | 212° |
| 2026-04-14 10:37 | -8.01989 | 38.30667 | 35942 ft | 444 kts | 212° |
| 2026-04-14 10:38 | -8.07234 | 38.27344 | 35944 ft | 444 kts | 212° |
| 2026-04-14 10:38 | -8.12477 | 38.24021 | 35949 ft | 444 kts | 212° |
| 2026-04-14 10:39 | -8.17750 | 38.20678 | 35954 ft | 444 kts | 212° |
| 2026-04-14 10:39 | -8.22986 | 38.17340 | 35958 ft | 444 kts | 213° |
| 2026-04-14 10:40 | -8.27994 | 38.13697 | 35963 ft | 443 kts | 217° |
| 2026-04-14 10:40 | -8.32886 | 38.09860 | 35973 ft | 444 kts | 218° |
| 2026-04-14 10:41 | -8.37771 | 38.06025 | 35979 ft | 444 kts | 218° |
| 2026-04-14 10:41 | -8.42697 | 38.02200 | 35990 ft | 443 kts | 217° |
| 2026-04-14 10:42 | -8.47620 | 37.98406 | 36005 ft | 443 kts | 217° |
| 2026-04-14 10:42 | -8.52565 | 37.94610 | 36015 ft | 444 kts | 217° |
| 2026-04-14 10:43 | -8.57503 | 37.90824 | 36020 ft | 444 kts | 217° |
| 2026-04-14 10:43 | -8.62457 | 37.87027 | 36020 ft | 443 kts | 217° |
| 2026-04-14 10:44 | -8.67385 | 37.83251 | 36018 ft | 442 kts | 217° |
| 2026-04-14 10:44 | -8.72292 | 37.79488 | 36012 ft | 443 kts | 217° |
| 2026-04-14 10:45 | -8.77226 | 37.75703 | 36009 ft | 442 kts | 217° |
| 2026-04-14 10:45 | -8.82157 | 37.71918 | 36010 ft | 444 kts | 217° |
| 2026-04-14 10:46 | -8.87082 | 37.68137 | 36012 ft | 443 kts | 217° |
| 2026-04-14 10:46 | -8.92024 | 37.64343 | 36016 ft | 444 kts | 217° |
| 2026-04-14 10:47 | -8.96962 | 37.60552 | 36017 ft | 443 kts | 217° |
| 2026-04-14 10:47 | -9.01853 | 37.56793 | 36024 ft | 443 kts | 217° |
| 2026-04-14 10:48 | -9.06781 | 37.53005 | 36030 ft | 443 kts | 217° |
| 2026-04-14 10:48 | -9.11730 | 37.49200 | 36037 ft | 442 kts | 217° |
| 2026-04-14 10:49 | -9.16618 | 37.45439 | 36034 ft | 443 kts | 217° |
| 2026-04-14 10:49 | -9.21561 | 37.41635 | 36032 ft | 442 kts | 217° |
| 2026-04-14 10:50 | -9.26454 | 37.37868 | 36030 ft | 442 kts | 217° |
| 2026-04-14 10:50 | -9.31362 | 37.34089 | 36023 ft | 443 kts | 217° |
| 2026-04-14 10:51 | -9.36290 | 37.30293 | 36017 ft | 442 kts | 217° |
| 2026-04-14 10:51 | -9.41185 | 37.26522 | 36013 ft | 442 kts | 217° |
| 2026-04-14 10:52 | -9.46085 | 37.22744 | 36013 ft | 443 kts | 217° |
| 2026-04-14 10:52 | -9.50981 | 37.18968 | 36018 ft | 443 kts | 217° |
| 2026-04-14 10:53 | -9.55910 | 37.15166 | 36023 ft | 443 kts | 217° |
| 2026-04-14 10:53 | -9.60830 | 37.11369 | 36029 ft | 443 kts | 217° |
| 2026-04-14 10:54 | -9.65714 | 37.07599 | 36033 ft | 441 kts | 218° |
| 2026-04-14 10:54 | -9.70625 | 37.03807 | 36035 ft | 441 kts | 218° |
| 2026-04-14 10:55 | -9.75490 | 37.00049 | 36039 ft | 441 kts | 218° |
| 2026-04-14 10:55 | -9.80388 | 36.96262 | 36042 ft | 441 kts | 218° |
| 2026-04-14 10:56 | -9.85258 | 36.92497 | 36047 ft | 441 kts | 218° |
| 2026-04-14 10:56 | -9.90176 | 36.88693 | 36051 ft | 442 kts | 218° |
| 2026-04-14 10:57 | -9.95050 | 36.84922 | 36057 ft | 443 kts | 218° |
| 2026-04-14 10:57 | -9.99986 | 36.81101 | 36060 ft | 442 kts | 218° |
| 2026-04-14 10:58 | -10.04894 | 36.77301 | 36068 ft | 440 kts | 218° |
| 2026-04-14 10:58 | -10.09755 | 36.73535 | 36076 ft | 440 kts | 218° |
| 2026-04-14 10:59 | -10.14634 | 36.69754 | 36076 ft | 440 kts | 218° |
| 2026-04-14 10:59 | -10.19514 | 36.65970 | 36084 ft | 440 kts | 218° |
| 2026-04-14 11:00 | -10.24366 | 36.62207 | 36086 ft | 441 kts | 218° |
| 2026-04-14 11:00 | -10.29250 | 36.58418 | 36092 ft | 440 kts | 218° |
| 2026-04-14 11:01 | -10.34125 | 36.54633 | 36094 ft | 440 kts | 218° |
| 2026-04-14 11:01 | -10.38992 | 36.50855 | 36095 ft | 440 kts | 218° |
| 2026-04-14 11:02 | -10.43850 | 36.47082 | 36094 ft | 440 kts | 218° |
| 2026-04-14 11:02 | -10.48737 | 36.43285 | 36094 ft | 439 kts | 218° |
| 2026-04-14 11:03 | -10.53597 | 36.39507 | 36092 ft | 440 kts | 218° |
| 2026-04-14 11:03 | -10.58454 | 36.35730 | 36091 ft | 439 kts | 218° |
| 2026-04-14 11:04 | -10.63322 | 36.31941 | 36095 ft | 440 kts | 218° |
| 2026-04-14 11:04 | -10.68231 | 36.28120 | 36091 ft | 439 kts | 218° |
| 2026-04-14 11:05 | -10.73083 | 36.24342 | 36090 ft | 439 kts | 218° |
| 2026-04-14 11:05 | -10.77942 | 36.20556 | 36091 ft | 439 kts | 218° |
| 2026-04-14 11:06 | -10.82837 | 36.16742 | 36090 ft | 439 kts | 218° |
| 2026-04-14 11:06 | -10.87700 | 36.12950 | 36080 ft | 439 kts | 218° |
| 2026-04-14 11:07 | -10.92602 | 36.09127 | 36066 ft | 439 kts | 218° |
| 2026-04-14 11:07 | -10.97465 | 36.05333 | 36058 ft | 439 kts | 218° |
| 2026-04-14 11:08 | -11.02309 | 36.01551 | 36059 ft | 438 kts | 218° |
| 2026-04-14 11:08 | -11.07185 | 35.97742 | 36050 ft | 439 kts | 218° |
| 2026-04-14 11:09 | -11.12042 | 35.93946 | 36051 ft | 439 kts | 218° |
| 2026-04-14 11:09 | -11.16874 | 35.90169 | 36065 ft | 438 kts | 218° |
| 2026-04-14 11:10 | -11.24145 | 35.84484 | 36062 ft | 438 kts | 218° |
| 2026-04-14 11:10 | -11.28990 | 35.80693 | 36052 ft | 438 kts | 218° |
| 2026-04-14 11:11 | -11.33845 | 35.76892 | 36054 ft | 439 kts | 218° |
| 2026-04-14 11:11 | -11.38697 | 35.73091 | 36060 ft | 438 kts | 218° |
| 2026-04-14 11:12 | -11.43543 | 35.69294 | 36061 ft | 438 kts | 218° |
| 2026-04-14 11:12 | -11.48389 | 35.65496 | 36061 ft | 438 kts | 218° |
| 2026-04-14 11:13 | -11.53251 | 35.61683 | 36061 ft | 438 kts | 218° |
| 2026-04-14 11:13 | -11.58081 | 35.57894 | 36067 ft | 437 kts | 218° |
| 2026-04-14 11:14 | -11.62907 | 35.54096 | 36068 ft | 437 kts | 219° |
| 2026-04-14 11:14 | -11.67715 | 35.50261 | 36065 ft | 438 kts | 219° |
| 2026-04-14 11:15 | -11.72514 | 35.46415 | 36062 ft | 437 kts | 219° |
| 2026-04-14 11:15 | -11.77323 | 35.42561 | 36059 ft | 438 kts | 219° |
| 2026-04-14 11:16 | -11.82107 | 35.38729 | 36061 ft | 438 kts | 219° |
| 2026-04-14 11:16 | -11.86932 | 35.34865 | 36067 ft | 438 kts | 219° |
| 2026-04-14 11:17 | -11.91720 | 35.31030 | 36067 ft | 438 kts | 219° |
| 2026-04-14 11:17 | -11.96520 | 35.27187 | 36066 ft | 437 kts | 219° |
| 2026-04-14 11:18 | -12.01306 | 35.23351 | 36068 ft | 437 kts | 219° |
| 2026-04-14 11:18 | -12.06106 | 35.19502 | 36070 ft | 437 kts | 219° |
| 2026-04-14 11:19 | -12.10892 | 35.15662 | 36077 ft | 438 kts | 219° |
| 2026-04-14 11:19 | -12.15717 | 35.11791 | 36081 ft | 437 kts | 219° |
| 2026-04-14 11:20 | -12.20506 | 35.07945 | 36083 ft | 438 kts | 219° |
| 2026-04-14 11:20 | -12.25302 | 35.04092 | 36079 ft | 437 kts | 219° |
| 2026-04-14 11:21 | -12.30105 | 35.00231 | 36079 ft | 438 kts | 219° |
| 2026-04-14 11:21 | -12.34907 | 34.96369 | 36082 ft | 438 kts | 219° |
| 2026-04-14 11:22 | -12.39733 | 34.92487 | 36081 ft | 437 kts | 219° |
| 2026-04-14 11:22 | -12.44499 | 34.88650 | 36077 ft | 438 kts | 219° |
| 2026-04-14 11:23 | -12.49294 | 34.84788 | 36072 ft | 437 kts | 219° |
| 2026-04-14 11:23 | -12.54089 | 34.80925 | 36074 ft | 438 kts | 219° |
| 2026-04-14 11:24 | -12.58875 | 34.77067 | 36071 ft | 438 kts | 219° |
| 2026-04-14 11:24 | -12.63642 | 34.73286 | 35783 ft | 429 kts | 218° |
| 2026-04-14 11:25 | -12.66040 | 34.71443 | 35332 ft | 423 kts | 218° |
| 2026-04-14 11:25 | -12.68378 | 34.69659 | 34738 ft | 420 kts | 218° |
| 2026-04-14 11:25 | -12.70723 | 34.67871 | 34041 ft | 419 kts | 218° |
| 2026-04-14 11:25 | -12.73035 | 34.66106 | 33325 ft | 419 kts | 218° |
| 2026-04-14 11:26 | -12.75377 | 34.64314 | 32621 ft | 418 kts | 218° |
| 2026-04-14 11:26 | -12.77706 | 34.62528 | 32150 ft | 419 kts | 218° |
| 2026-04-14 11:26 | -12.80066 | 34.60716 | 31589 ft | 425 kts | 217° |
| 2026-04-14 11:26 | -12.82406 | 34.58918 | 31013 ft | 423 kts | 218° |
| 2026-04-14 11:27 | -12.84752 | 34.57113 | 30430 ft | 420 kts | 218° |
| 2026-04-14 11:27 | -12.87083 | 34.55319 | 29848 ft | 418 kts | 217° |
| 2026-04-14 11:27 | -12.89398 | 34.53536 | 29268 ft | 415 kts | 217° |
| 2026-04-14 11:27 | -12.91713 | 34.51752 | 28689 ft | 413 kts | 217° |
| 2026-04-14 11:28 | -12.93996 | 34.49992 | 28131 ft | 411 kts | 217° |
| 2026-04-14 11:28 | -12.96286 | 34.48225 | 27553 ft | 409 kts | 217° |
| 2026-04-14 11:28 | -12.98535 | 34.46490 | 26981 ft | 408 kts | 217° |
| 2026-04-14 11:28 | -13.00799 | 34.44741 | 26401 ft | 406 kts | 217° |
| 2026-04-14 11:29 | -13.03059 | 34.42996 | 25825 ft | 405 kts | 217° |
| 2026-04-14 11:29 | -13.05295 | 34.41270 | 25249 ft | 403 kts | 217° |
| 2026-04-14 11:29 | -13.07515 | 34.39557 | 24677 ft | 402 kts | 217° |
| 2026-04-14 11:29 | -13.09750 | 34.37832 | 24103 ft | 400 kts | 217° |
| 2026-04-14 11:30 | -13.11991 | 34.36099 | 23525 ft | 399 kts | 217° |
| 2026-04-14 11:30 | -13.14098 | 34.34300 | 22952 ft | 397 kts | 223° |
| 2026-04-14 11:30 | -13.16004 | 34.32251 | 22377 ft | 396 kts | 230° |
| 2026-04-14 11:30 | -13.17691 | 34.30029 | 21812 ft | 395 kts | 234° |
| 2026-04-14 11:31 | -13.19243 | 34.27744 | 21261 ft | 393 kts | 236° |
| 2026-04-14 11:31 | -13.20759 | 34.25398 | 20694 ft | 392 kts | 237° |
| 2026-04-14 11:31 | -13.22240 | 34.23061 | 20133 ft | 391 kts | 237° |
| 2026-04-14 11:31 | -13.23711 | 34.20734 | 19572 ft | 390 kts | 237° |
| 2026-04-14 11:32 | -13.25182 | 34.18415 | 19014 ft | 388 kts | 237° |
| 2026-04-14 11:32 | -13.26648 | 34.16110 | 18455 ft | 387 kts | 237° |
| 2026-04-14 11:32 | -13.28120 | 34.13802 | 17861 ft | 383 kts | 237° |
| 2026-04-14 11:32 | -13.29557 | 34.11557 | 17344 ft | 370 kts | 237° |
| 2026-04-14 11:33 | -13.30948 | 34.09389 | 16824 ft | 359 kts | 237° |
| 2026-04-14 11:33 | -13.32309 | 34.07271 | 16308 ft | 358 kts | 237° |
| 2026-04-14 11:33 | -13.33684 | 34.05133 | 15767 ft | 359 kts | 237° |
| 2026-04-14 11:34 | -13.36448 | 34.00838 | 14697 ft | 359 kts | 237° |
| 2026-04-14 11:34 | -13.37811 | 33.98721 | 14186 ft | 359 kts | 237° |
| 2026-04-14 11:34 | -13.39191 | 33.96577 | 13642 ft | 359 kts | 236° |
| 2026-04-14 11:34 | -13.40551 | 33.94463 | 13109 ft | 358 kts | 236° |
| 2026-04-14 11:35 | -13.41934 | 33.92314 | 12572 ft | 358 kts | 236° |
| 2026-04-14 11:35 | -13.43301 | 33.90189 | 12042 ft | 357 kts | 236° |
| 2026-04-14 11:35 | -13.44655 | 33.88084 | 11511 ft | 357 kts | 236° |
| 2026-04-14 11:35 | -13.46027 | 33.85950 | 10973 ft | 357 kts | 236° |
| 2026-04-14 11:36 | -13.47393 | 33.83827 | 10531 ft | 353 kts | 236° |
| 2026-04-14 11:36 | -13.48757 | 33.81791 | 10326 ft | 335 kts | 233° |
| 2026-04-14 11:36 | -13.50117 | 33.79944 | 10217 ft | 312 kts | 231° |
| 2026-04-14 11:36 | -13.51427 | 33.78236 | 9890 ft | 301 kts | 231° |
| 2026-04-14 11:37 | -13.52732 | 33.76540 | 9506 ft | 298 kts | 231° |
| 2026-04-14 11:37 | -13.54003 | 33.74870 | 9107 ft | 298 kts | 232° |
| 2026-04-14 11:37 | -13.55269 | 33.73179 | 8739 ft | 297 kts | 232° |
| 2026-04-14 11:37 | -13.56515 | 33.71504 | 8343 ft | 297 kts | 231° |
| 2026-04-14 11:38 | -13.57871 | 33.69939 | 7993 ft | 285 kts | 220° |
| 2026-04-14 11:38 | -13.59489 | 33.68911 | 7692 ft | 268 kts | 193° |
| 2026-04-14 11:38 | -13.61282 | 33.68714 | 7437 ft | 253 kts | 175° |
| 2026-04-14 11:38 | -13.63042 | 33.68817 | 7184 ft | 247 kts | 173° |
| 2026-04-14 11:39 | -13.64746 | 33.68896 | 6957 ft | 241 kts | 175° |
| 2026-04-14 11:39 | -13.66398 | 33.68910 | 6687 ft | 237 kts | 177° |
| 2026-04-14 11:39 | -13.68055 | 33.68896 | 6420 ft | 232 kts | 177° |
| 2026-04-14 11:39 | -13.69630 | 33.68880 | 6204 ft | 223 kts | 175° |
| 2026-04-14 11:40 | -13.71143 | 33.69043 | 5934 ft | 212 kts | 159° |
| 2026-04-14 11:40 | -13.72364 | 33.69801 | 5676 ft | 198 kts | 128° |
| 2026-04-14 11:40 | -13.73031 | 33.70965 | 5456 ft | 182 kts | 114° |
| 2026-04-14 11:40 | -13.73760 | 33.71972 | 5194 ft | 172 kts | 137° |
| 2026-04-14 11:41 | -13.74633 | 33.72707 | 5035 ft | 157 kts | 127° |
| 2026-04-14 11:41 | -13.75176 | 33.73642 | 4815 ft | 147 kts | 116° |
| 2026-04-14 11:41 | -13.75875 | 33.74428 | 4660 ft | 153 kts | 134° |
| 2026-04-14 11:41 | -13.76603 | 33.75220 | 4531 ft | 150 kts | 126° |
| 2026-04-14 11:42 | -13.77263 | 33.76044 | 4345 ft | 151 kts | 126° |
| 2026-04-14 11:42 | -13.77935 | 33.76872 | 4119 ft | 151 kts | 124° |
| 2026-04-14 11:42 | -13.78870 | 33.78051 | 4366 ft | 139 kts | 128° |
| 2026-04-14 11:42 | -13.80218 | 33.79436 | 5363 ft | 146 kts | 135° |
| 2026-04-14 11:43 | -13.81870 | 33.81099 | 6053 ft | 169 kts | 124° |
| 2026-04-14 11:43 | -13.82591 | 33.83701 | 6059 ft | 228 kts | 76° |
| 2026-04-14 11:43 | -13.81349 | 33.86720 | 5893 ft | 219 kts | 77° |
| 2026-04-14 11:43 | -13.82076 | 33.89613 | 6210 ft | 219 kts | 117° |
| 2026-04-14 11:44 | -13.82676 | 33.92594 | 6694 ft | 220 kts | 77° |
| 2026-04-14 11:44 | -13.82199 | 33.95715 | 7006 ft | 230 kts | 95° |
| 2026-04-14 11:44 | -13.84090 | 33.98374 | 6894 ft | 254 kts | 156° |
| 2026-04-14 11:44 | -13.87523 | 33.97712 | 6967 ft | 272 kts | 217° |
| 2026-04-14 11:45 | -13.89482 | 33.94452 | 6947 ft | 275 kts | 259° |
| 2026-04-14 11:45 | -13.89262 | 33.91958 | 6959 ft | 273 kts | 299° |
| 2026-04-14 11:45 | -13.88130 | 33.90331 | 6968 ft | 288 kts | 315° |
| 2026-04-14 11:45 | -13.86768 | 33.88792 | 6959 ft | 288 kts | 314° |
| 2026-04-14 11:46 | -13.85487 | 33.87207 | 6954 ft | 289 kts | 310° |
| 2026-04-14 11:46 | -13.84269 | 33.85532 | 6966 ft | 290 kts | 308° |
| 2026-04-14 11:46 | -13.83107 | 33.83828 | 6972 ft | 291 kts | 307° |
| 2026-04-14 11:46 | -13.81951 | 33.82087 | 6981 ft | 295 kts | 306° |
| 2026-04-14 11:47 | -13.80777 | 33.80402 | 6963 ft | 289 kts | 309° |
| 2026-04-14 11:47 | -13.79519 | 33.78765 | 6982 ft | 291 kts | 311° |
| 2026-04-14 11:47 | -13.78197 | 33.77148 | 6981 ft | 293 kts | 313° |
| 2026-04-14 11:47 | -13.76902 | 33.75590 | 6979 ft | 280 kts | 313° |
| 2026-04-14 11:48 | -13.75688 | 33.74118 | 6983 ft | 261 kts | 313° |
| 2026-04-14 11:48 | -13.74541 | 33.72715 | 6966 ft | 244 kts | 313° |
| 2026-04-14 11:48 | -13.73528 | 33.71386 | 6950 ft | 230 kts | 301° |
| 2026-04-14 11:48 | -13.73195 | 33.69848 | 6946 ft | 221 kts | 261° |
| 2026-04-14 11:49 | -13.73723 | 33.68381 | 6953 ft | 217 kts | 243° |
| 2026-04-14 11:49 | -13.74303 | 33.66943 | 6947 ft | 218 kts | 253° |
| 2026-04-14 11:49 | -13.74625 | 33.65420 | 6954 ft | 218 kts | 262° |
| 2026-04-14 11:49 | -13.74818 | 33.63890 | 6856 ft | 218 kts | 266° |
| 2026-04-14 11:50 | -13.74605 | 33.62374 | 6739 ft | 211 kts | 300° |
| 2026-04-14 11:50 | -13.73695 | 33.61274 | 6634 ft | 197 kts | 329° |
| 2026-04-14 11:50 | -13.72502 | 33.60606 | 6525 ft | 191 kts | 342° |
| 2026-04-14 11:51 | -13.70008 | 33.60686 | 6335 ft | 180 kts | 33° |
| 2026-04-14 11:51 | -13.68988 | 33.61431 | 6241 ft | 178 kts | 45° |
| 2026-04-14 11:51 | -13.68252 | 33.62449 | 6146 ft | 176 kts | 70° |
| 2026-04-14 11:51 | -13.68028 | 33.63676 | 6050 ft | 175 kts | 90° |
| 2026-04-14 11:52 | -13.68272 | 33.64875 | 5968 ft | 170 kts | 114° |
| 2026-04-14 11:52 | -13.68937 | 33.65872 | 5972 ft | 170 kts | 125° |
| 2026-04-14 11:52 | -13.69672 | 33.66826 | 5999 ft | 166 kts | 125° |
| 2026-04-14 11:52 | -13.70416 | 33.67759 | 5968 ft | 170 kts | 126° |
| 2026-04-14 11:53 | -13.71177 | 33.68681 | 5957 ft | 170 kts | 127° |
| 2026-04-14 11:53 | -13.71946 | 33.69611 | 5771 ft | 167 kts | 127° |
| 2026-04-14 11:53 | -13.72662 | 33.70485 | 5519 ft | 154 kts | 126° |
| 2026-04-14 11:53 | -13.73344 | 33.71317 | 5384 ft | 149 kts | 127° |
| 2026-04-14 11:54 | -13.74024 | 33.72144 | 5172 ft | 149 kts | 126° |
| 2026-04-14 11:54 | -13.74679 | 33.72938 | 4973 ft | 144 kts | 127° |
| 2026-04-14 11:54 | -13.75336 | 33.73740 | 4809 ft | 150 kts | 127° |
| 2026-04-14 11:54 | -13.76014 | 33.74571 | 4603 ft | 149 kts | 128° |
| 2026-04-14 11:55 | -13.76692 | 33.75371 | 4446 ft | 147 kts | 128° |
| 2026-04-14 11:55 | -13.77363 | 33.76167 | 4276 ft | 147 kts | 126° |
| 2026-04-14 11:55 | -13.78014 | 33.76965 | 4071 ft | 146 kts | 128° |
| 2026-04-14 11:55 | -13.78619 | 33.77712 | 4024 ft | 115 kts | 130° |
| 2026-04-14 11:56 | -13.78935 | 33.78097 | 4012 ft | 27 kts | 129° |
| 2026-04-14 11:56 | -13.78914 | 33.78182 | 4013 ft | 13 kts | 31° |
| 2026-04-14 11:56 | -13.78846 | 33.78227 | 4016 ft | 9 kts | 22° |
| 2026-04-14 11:56 | -13.78778 | 33.78196 | 4018 ft | 13 kts | 311° |
| 2026-04-14 11:57 | -13.78699 | 33.78098 | 4021 ft | 22 kts | 310° |
| 2026-04-14 11:57 | -13.78594 | 33.77970 | 4025 ft | 22 kts | 309° |
| 2026-04-14 11:57 | -13.78494 | 33.77846 | 4029 ft | 23 kts | 310° |
| 2026-04-14 11:57 | -13.78408 | 33.77745 | 4031 ft | 10 kts | 328° |
| 2026-04-14 11:58 | -13.78334 | 33.77768 | 4032 ft | 13 kts | 39° |
| 2026-04-14 11:58 | -13.78261 | 33.77830 | 4033 ft | 12 kts | 40° |
| 2026-04-14 11:58 | -13.78208 | 33.77874 | 4035 ft | 4 kts | 40° |
| 2026-04-14 11:58 | -13.78212 | 33.77908 | 4035 ft | 7 kts | 129° |
| 2026-04-14 11:59 | -13.78223 | 33.77921 | 4035 ft | 0 kts | 129° |